sensor_id;sensor_type;location;lat;lon;timestamp;P1;durP1;ratioP1;P2;durP2;ratioP2
18689;SDS011;9782;52.930;15.562;2022-07-30T00:00:19;17.43;;;15.87;;
18689;SDS011;9782;52.930;15.562;2022-07-30T00:05:14;14.93;;;13.43;;
18689;SDS011;9782;52.930;15.562;2022-07-30T00:07:41;15.27;;;13.23;;
18689;SDS011;9782;52.930;15.562;2022-07-30T00:10:10;15.70;;;14.23;;
18689;SDS011;9782;52.930;15.562;2022-07-30T00:12:38;14.20;;;12.73;;
18689;SDS011;9782;52.930;15.562;2022-07-30T00:15:05;15.10;;;13.37;;
18689;SDS011;9782;52.930;15.562;2022-07-30T00:17:33;20.27;;;18.27;;
18689;SDS011;9782;52.930;15.562;2022-07-30T00:20:01;16.80;;;15.37;;
18689;SDS011;9782;52.930;15.562;2022-07-30T00:22:29;17.83;;;16.27;;
18689;SDS011;9782;52.930;15.562;2022-07-30T00:27:24;17.00;;;15.47;;
18689;SDS011;9782;52.930;15.562;2022-07-30T00:29:51;16.07;;;14.67;;
18689;SDS011;9782;52.930;15.562;2022-07-30T00:32:19;15.77;;;14.40;;
18689;SDS011;9782;52.930;15.562;2022-07-30T00:34:48;16.30;;;14.97;;
18689;SDS011;9782;52.930;15.562;2022-07-30T00:37:15;18.07;;;16.63;;
18689;SDS011;9782;52.930;15.562;2022-07-30T00:39:42;16.57;;;14.83;;
18689;SDS011;9782;52.930;15.562;2022-07-30T00:42:09;19.40;;;17.93;;
18689;SDS011;9782;52.930;15.562;2022-07-30T00:44:38;17.00;;;15.27;;
18689;SDS011;9782;52.930;15.562;2022-07-30T00:47:06;16.60;;;14.93;;
18689;SDS011;9782;52.930;15.562;2022-07-30T00:49:33;16.57;;;15.13;;
18689;SDS011;9782;52.930;15.562;2022-07-30T00:52:01;16.80;;;15.37;;
18689;SDS011;9782;52.930;15.562;2022-07-30T00:54:28;14.83;;;13.50;;
18689;SDS011;9782;52.930;15.562;2022-07-30T00:56:57;18.00;;;16.47;;
18689;SDS011;9782;52.930;15.562;2022-07-30T00:59:24;17.53;;;16.07;;
18689;SDS011;9782;52.930;15.562;2022-07-30T01:01:54;16.23;;;14.87;;
18689;SDS011;9782;52.930;15.562;2022-07-30T01:04:23;16.83;;;15.40;;
18689;SDS011;9782;52.930;15.562;2022-07-30T01:06:50;19.00;;;17.43;;
18689;SDS011;9782;52.930;15.562;2022-07-30T01:09:18;16.37;;;15.00;;
18689;SDS011;9782;52.930;15.562;2022-07-30T01:11:45;17.37;;;15.90;;
18689;SDS011;9782;52.930;15.562;2022-07-30T01:14:12;19.07;;;17.60;;
18689;SDS011;9782;52.930;15.562;2022-07-30T01:16:40;18.50;;;17.03;;
18689;SDS011;9782;52.930;15.562;2022-07-30T01:19:11;14.40;;;13.07;;
18689;SDS011;9782;52.930;15.562;2022-07-30T01:22:02;17.10;;;15.73;;
18689;SDS011;9782;52.930;15.562;2022-07-30T01:24:39;17.23;;;15.87;;
18689;SDS011;9782;52.930;15.562;2022-07-30T01:27:11;17.30;;;15.80;;
18689;SDS011;9782;52.930;15.562;2022-07-30T01:29:39;13.93;;;11.50;;
18689;SDS011;9782;52.930;15.562;2022-07-30T01:32:10;24.33;;;13.53;;
18689;SDS011;9782;52.930;15.562;2022-07-30T01:34:39;14.10;;;12.07;;
18689;SDS011;9782;52.930;15.562;2022-07-30T01:37:09;14.53;;;13.03;;
18689;SDS011;9782;52.930;15.562;2022-07-30T01:39:37;13.67;;;12.00;;
18689;SDS011;9782;52.930;15.562;2022-07-30T01:42:05;14.20;;;12.57;;
18689;SDS011;9782;52.930;15.562;2022-07-30T01:44:35;13.73;;;12.10;;
18689;SDS011;9782;52.930;15.562;2022-07-30T01:47:04;14.47;;;13.00;;
18689;SDS011;9782;52.930;15.562;2022-07-30T01:52:01;15.13;;;13.67;;
18689;SDS011;9782;52.930;15.562;2022-07-30T01:54:29;15.47;;;13.37;;
18689;SDS011;9782;52.930;15.562;2022-07-30T01:56:59;15.73;;;14.13;;
18689;SDS011;9782;52.930;15.562;2022-07-30T01:59:27;14.10;;;12.73;;
18689;SDS011;9782;52.930;15.562;2022-07-30T02:02:01;15.87;;;14.50;;
18689;SDS011;9782;52.930;15.562;2022-07-30T02:04:28;16.67;;;15.40;;
18689;SDS011;9782;52.930;15.562;2022-07-30T02:06:58;22.73;;;20.97;;
18689;SDS011;9782;52.930;15.562;2022-07-30T02:09:28;31.57;;;29.50;;
18689;SDS011;9782;52.930;15.562;2022-07-30T02:12:01;23.77;;;21.83;;
18689;SDS011;9782;52.930;15.562;2022-07-30T02:14:48;18.03;;;16.50;;
18689;SDS011;9782;52.930;15.562;2022-07-30T02:17:21;23.67;;;21.57;;
18689;SDS011;9782;52.930;15.562;2022-07-30T02:19:52;23.17;;;21.50;;
18689;SDS011;9782;52.930;15.562;2022-07-30T02:22:21;21.53;;;20.00;;
18689;SDS011;9782;52.930;15.562;2022-07-30T02:24:51;28.97;;;26.93;;
18689;SDS011;9782;52.930;15.562;2022-07-30T02:27:21;13.47;;;11.80;;
18689;SDS011;9782;52.930;15.562;2022-07-30T02:29:53;17.17;;;15.70;;
18689;SDS011;9782;52.930;15.562;2022-07-30T02:32:25;18.33;;;16.83;;
18689;SDS011;9782;52.930;15.562;2022-07-30T02:34:56;16.33;;;14.93;;
18689;SDS011;9782;52.930;15.562;2022-07-30T02:37:28;17.53;;;14.93;;
18689;SDS011;9782;52.930;15.562;2022-07-30T02:42:23;17.73;;;16.07;;
18689;SDS011;9782;52.930;15.562;2022-07-30T02:44:52;315.40;;;156.23;;
18689;SDS011;9782;52.930;15.562;2022-07-30T02:47:21;630.93;;;149.17;;
18689;SDS011;9782;52.930;15.562;2022-07-30T02:49:51;565.97;;;182.30;;
18689;SDS011;9782;52.930;15.562;2022-07-30T02:52:20;577.73;;;167.03;;
18689;SDS011;9782;52.930;15.562;2022-07-30T02:54:48;584.07;;;172.17;;
18689;SDS011;9782;52.930;15.562;2022-07-30T02:57:17;19.17;;;17.13;;
18689;SDS011;9782;52.930;15.562;2022-07-30T02:59:46;20.40;;;18.30;;
18689;SDS011;9782;52.930;15.562;2022-07-30T03:02:14;20.27;;;18.20;;
18689;SDS011;9782;52.930;15.562;2022-07-30T03:04:43;18.33;;;15.77;;
18689;SDS011;9782;52.930;15.562;2022-07-30T03:07:13;19.80;;;17.73;;
18689;SDS011;9782;52.930;15.562;2022-07-30T03:09:42;20.20;;;18.13;;
18689;SDS011;9782;52.930;15.562;2022-07-30T03:12:11;20.30;;;18.23;;
18689;SDS011;9782;52.930;15.562;2022-07-30T03:14:40;19.13;;;17.17;;
18689;SDS011;9782;52.930;15.562;2022-07-30T03:17:08;21.07;;;18.90;;
18689;SDS011;9782;52.930;15.562;2022-07-30T03:19:41;21.90;;;19.67;;
18689;SDS011;9782;52.930;15.562;2022-07-30T03:22:10;20.07;;;17.83;;
18689;SDS011;9782;52.930;15.562;2022-07-30T03:24:41;19.07;;;17.00;;
18689;SDS011;9782;52.930;15.562;2022-07-30T03:27:10;20.33;;;18.27;;
18689;SDS011;9782;52.930;15.562;2022-07-30T03:29:39;20.00;;;17.80;;
18689;SDS011;9782;52.930;15.562;2022-07-30T03:32:08;21.53;;;19.30;;
18689;SDS011;9782;52.930;15.562;2022-07-30T03:34:36;22.23;;;19.73;;
18689;SDS011;9782;52.930;15.562;2022-07-30T03:37:04;21.50;;;19.37;;
18689;SDS011;9782;52.930;15.562;2022-07-30T03:39:32;21.50;;;19.40;;
18689;SDS011;9782;52.930;15.562;2022-07-30T03:42:01;22.83;;;17.33;;
18689;SDS011;9782;52.930;15.562;2022-07-30T03:44:29;21.80;;;19.53;;
18689;SDS011;9782;52.930;15.562;2022-07-30T03:46:58;23.07;;;20.77;;
18689;SDS011;9782;52.930;15.562;2022-07-30T03:49:27;24.13;;;21.87;;
18689;SDS011;9782;52.930;15.562;2022-07-30T03:51:55;22.60;;;20.33;;
18689;SDS011;9782;52.930;15.562;2022-07-30T03:54:22;22.75;;;20.50;;
18689;SDS011;9782;52.930;15.562;2022-07-30T03:56:50;24.80;;;22.43;;
18689;SDS011;9782;52.930;15.562;2022-07-30T04:01:46;24.03;;;21.77;;
18689;SDS011;9782;52.930;15.562;2022-07-30T04:04:16;24.50;;;22.23;;
18689;SDS011;9782;52.930;15.562;2022-07-30T04:06:43;23.93;;;21.77;;
18689;SDS011;9782;52.930;15.562;2022-07-30T04:09:11;23.40;;;21.07;;
18689;SDS011;9782;52.930;15.562;2022-07-30T04:11:38;24.70;;;22.43;;
18689;SDS011;9782;52.930;15.562;2022-07-30T04:14:05;22.10;;;20.00;;
18689;SDS011;9782;52.930;15.562;2022-07-30T04:16:36;24.57;;;22.27;;
18689;SDS011;9782;52.930;15.562;2022-07-30T04:19:15;21.90;;;19.83;;
18689;SDS011;9782;52.930;15.562;2022-07-30T04:21:47;21.50;;;19.33;;
18689;SDS011;9782;52.930;15.562;2022-07-30T04:24:16;23.00;;;20.83;;
18689;SDS011;9782;52.930;15.562;2022-07-30T04:26:45;24.70;;;21.47;;
18689;SDS011;9782;52.930;15.562;2022-07-30T04:29:15;23.50;;;21.17;;
18689;SDS011;9782;52.930;15.562;2022-07-30T04:31:50;24.67;;;22.40;;
18689;SDS011;9782;52.930;15.562;2022-07-30T04:34:18;23.40;;;21.13;;
18689;SDS011;9782;52.930;15.562;2022-07-30T04:36:46;23.47;;;21.23;;
18689;SDS011;9782;52.930;15.562;2022-07-30T04:39:13;23.60;;;21.40;;
18689;SDS011;9782;52.930;15.562;2022-07-30T04:41:40;22.40;;;20.23;;
18689;SDS011;9782;52.930;15.562;2022-07-30T04:44:07;21.73;;;19.57;;
18689;SDS011;9782;52.930;15.562;2022-07-30T04:46:35;24.30;;;22.10;;
18689;SDS011;9782;52.930;15.562;2022-07-30T04:49:04;25.03;;;19.80;;
18689;SDS011;9782;52.930;15.562;2022-07-30T04:51:38;22.97;;;20.53;;
18689;SDS011;9782;52.930;15.562;2022-07-30T04:54:07;23.37;;;21.07;;
18689;SDS011;9782;52.930;15.562;2022-07-30T04:56:38;21.77;;;19.60;;
18689;SDS011;9782;52.930;15.562;2022-07-30T04:59:07;21.23;;;19.17;;
18689;SDS011;9782;52.930;15.562;2022-07-30T05:01:36;22.83;;;20.67;;
18689;SDS011;9782;52.930;15.562;2022-07-30T05:04:06;22.60;;;20.40;;
18689;SDS011;9782;52.930;15.562;2022-07-30T05:06:44;22.63;;;20.37;;
18689;SDS011;9782;52.930;15.562;2022-07-30T05:09:13;21.13;;;18.97;;
18689;SDS011;9782;52.930;15.562;2022-07-30T05:11:40;22.30;;;20.13;;
18689;SDS011;9782;52.930;15.562;2022-07-30T05:14:08;23.77;;;21.33;;
18689;SDS011;9782;52.930;15.562;2022-07-30T05:16:38;22.37;;;20.20;;
18689;SDS011;9782;52.930;15.562;2022-07-30T05:19:09;22.53;;;20.27;;
18689;SDS011;9782;52.930;15.562;2022-07-30T05:21:37;22.60;;;20.37;;
18689;SDS011;9782;52.930;15.562;2022-07-30T05:24:04;22.80;;;20.63;;
18689;SDS011;9782;52.930;15.562;2022-07-30T05:26:32;21.83;;;19.73;;
18689;SDS011;9782;52.930;15.562;2022-07-30T05:29:00;22.73;;;20.57;;
18689;SDS011;9782;52.930;15.562;2022-07-30T05:31:27;22.07;;;19.80;;
18689;SDS011;9782;52.930;15.562;2022-07-30T05:33:54;23.60;;;21.33;;
18689;SDS011;9782;52.930;15.562;2022-07-30T05:36:25;32.00;;;21.03;;
18689;SDS011;9782;52.930;15.562;2022-07-30T05:39:03;24.50;;;22.13;;
18689;SDS011;9782;52.930;15.562;2022-07-30T05:41:33;21.70;;;19.63;;
18689;SDS011;9782;52.930;15.562;2022-07-30T05:44:00;23.10;;;20.90;;
18689;SDS011;9782;52.930;15.562;2022-07-30T05:46:27;22.17;;;20.00;;
18689;SDS011;9782;52.930;15.562;2022-07-30T05:48:55;24.13;;;21.80;;
18689;SDS011;9782;52.930;15.562;2022-07-30T05:51:24;23.33;;;21.13;;
18689;SDS011;9782;52.930;15.562;2022-07-30T05:53:51;23.17;;;20.97;;
18689;SDS011;9782;52.930;15.562;2022-07-30T05:56:18;22.97;;;20.70;;
18689;SDS011;9782;52.930;15.562;2022-07-30T05:58:45;23.20;;;21.03;;
18689;SDS011;9782;52.930;15.562;2022-07-30T06:01:12;22.93;;;20.60;;
18689;SDS011;9782;52.930;15.562;2022-07-30T06:03:39;23.90;;;21.43;;
18689;SDS011;9782;52.930;15.562;2022-07-30T06:06:06;24.20;;;21.20;;
18689;SDS011;9782;52.930;15.562;2022-07-30T06:08:35;25.07;;;22.70;;
18689;SDS011;9782;52.930;15.562;2022-07-30T06:11:03;24.63;;;21.90;;
18689;SDS011;9782;52.930;15.562;2022-07-30T06:13:30;23.60;;;21.03;;
18689;SDS011;9782;52.930;15.562;2022-07-30T06:15:57;23.77;;;21.47;;
18689;SDS011;9782;52.930;15.562;2022-07-30T06:18:24;22.83;;;20.63;;
18689;SDS011;9782;52.930;15.562;2022-07-30T06:20:51;23.63;;;21.37;;
18689;SDS011;9782;52.930;15.562;2022-07-30T06:23:19;22.90;;;20.63;;
18689;SDS011;9782;52.930;15.562;2022-07-30T06:25:49;21.73;;;19.53;;
18689;SDS011;9782;52.930;15.562;2022-07-30T06:28:16;24.07;;;21.60;;
18689;SDS011;9782;52.930;15.562;2022-07-30T06:30:44;24.17;;;21.87;;
18689;SDS011;9782;52.930;15.562;2022-07-30T06:33:13;23.13;;;20.77;;
18689;SDS011;9782;52.930;15.562;2022-07-30T06:35:40;23.53;;;21.27;;
18689;SDS011;9782;52.930;15.562;2022-07-30T06:38:07;21.13;;;18.97;;
18689;SDS011;9782;52.930;15.562;2022-07-30T06:40:34;20.80;;;18.73;;
18689;SDS011;9782;52.930;15.562;2022-07-30T06:43:03;20.83;;;18.73;;
18689;SDS011;9782;52.930;15.562;2022-07-30T06:45:30;22.30;;;20.13;;
18689;SDS011;9782;52.930;15.562;2022-07-30T06:47:57;21.83;;;19.63;;
18689;SDS011;9782;52.930;15.562;2022-07-30T06:50:24;22.53;;;19.27;;
18689;SDS011;9782;52.930;15.562;2022-07-30T06:52:52;20.37;;;18.20;;
18689;SDS011;9782;52.930;15.562;2022-07-30T06:55:20;21.00;;;18.90;;
18689;SDS011;9782;52.930;15.562;2022-07-30T06:57:47;37.17;;;17.97;;
18689;SDS011;9782;52.930;15.562;2022-07-30T07:00:15;20.47;;;18.07;;
18689;SDS011;9782;52.930;15.562;2022-07-30T07:02:42;21.83;;;19.63;;
18689;SDS011;9782;52.930;15.562;2022-07-30T07:05:10;23.50;;;21.13;;
18689;SDS011;9782;52.930;15.562;2022-07-30T07:07:48;21.37;;;19.33;;
18689;SDS011;9782;52.930;15.562;2022-07-30T07:10:27;22.40;;;19.90;;
18689;SDS011;9782;52.930;15.562;2022-07-30T07:13:25;21.87;;;19.77;;
18689;SDS011;9782;52.930;15.562;2022-07-30T07:16:13;20.53;;;18.53;;
18689;SDS011;9782;52.930;15.562;2022-07-30T07:18:40;20.97;;;18.90;;
18689;SDS011;9782;52.930;15.562;2022-07-30T07:21:07;20.80;;;18.80;;
18689;SDS011;9782;52.930;15.562;2022-07-30T07:23:34;21.70;;;19.53;;
18689;SDS011;9782;52.930;15.562;2022-07-30T07:26:01;21.57;;;19.47;;
18689;SDS011;9782;52.930;15.562;2022-07-30T07:28:29;21.17;;;19.00;;
18689;SDS011;9782;52.930;15.562;2022-07-30T07:30:56;23.17;;;20.90;;
18689;SDS011;9782;52.930;15.562;2022-07-30T07:33:24;21.37;;;18.00;;
18689;SDS011;9782;52.930;15.562;2022-07-30T07:35:51;21.27;;;19.23;;
18689;SDS011;9782;52.930;15.562;2022-07-30T07:38:19;19.90;;;17.90;;
18689;SDS011;9782;52.930;15.562;2022-07-30T07:40:46;21.37;;;19.27;;
18689;SDS011;9782;52.930;15.562;2022-07-30T07:43:13;21.87;;;19.77;;
18689;SDS011;9782;52.930;15.562;2022-07-30T07:45:41;20.13;;;18.17;;
18689;SDS011;9782;52.930;15.562;2022-07-30T07:48:09;21.10;;;19.00;;
18689;SDS011;9782;52.930;15.562;2022-07-30T07:50:38;21.30;;;19.17;;
18689;SDS011;9782;52.930;15.562;2022-07-30T07:53:05;20.10;;;18.10;;
18689;SDS011;9782;52.930;15.562;2022-07-30T07:55:33;23.33;;;21.13;;
18689;SDS011;9782;52.930;15.562;2022-07-30T07:58:00;21.60;;;19.50;;
18689;SDS011;9782;52.930;15.562;2022-07-30T08:00:27;23.10;;;20.80;;
18689;SDS011;9782;52.930;15.562;2022-07-30T08:05:22;23.93;;;19.63;;
18689;SDS011;9782;52.930;15.562;2022-07-30T08:10:17;21.87;;;19.77;;
18689;SDS011;9782;52.930;15.562;2022-07-30T08:12:45;22.67;;;20.47;;
18689;SDS011;9782;52.930;15.562;2022-07-30T08:15:12;21.80;;;19.70;;
18689;SDS011;9782;52.930;15.562;2022-07-30T08:17:39;22.47;;;20.30;;
18689;SDS011;9782;52.930;15.562;2022-07-30T08:20:11;19.77;;;17.87;;
18689;SDS011;9782;52.930;15.562;2022-07-30T08:22:49;20.43;;;18.63;;
18689;SDS011;9782;52.930;15.562;2022-07-30T08:25:18;19.17;;;17.47;;
18689;SDS011;9782;52.930;15.562;2022-07-30T08:27:57;20.07;;;18.27;;
18689;SDS011;9782;52.930;15.562;2022-07-30T08:30:27;19.57;;;17.77;;
18689;SDS011;9782;52.930;15.562;2022-07-30T08:32:54;18.20;;;16.53;;
18689;SDS011;9782;52.930;15.562;2022-07-30T08:35:21;19.23;;;17.53;;
18689;SDS011;9782;52.930;15.562;2022-07-30T08:37:55;18.50;;;16.60;;
18689;SDS011;9782;52.930;15.562;2022-07-30T08:40:25;17.80;;;16.20;;
18689;SDS011;9782;52.930;15.562;2022-07-30T08:43:01;17.70;;;16.10;;
18689;SDS011;9782;52.930;15.562;2022-07-30T08:45:31;18.70;;;17.00;;
18689;SDS011;9782;52.930;15.562;2022-07-30T08:48:01;17.33;;;15.33;;
18689;SDS011;9782;52.930;15.562;2022-07-30T08:50:33;16.00;;;14.43;;
18689;SDS011;9782;52.930;15.562;2022-07-30T08:53:04;35.30;;;16.33;;
18689;SDS011;9782;52.930;15.562;2022-07-30T08:55:32;18.83;;;16.67;;
18689;SDS011;9782;52.930;15.562;2022-07-30T08:57:59;26.07;;;15.83;;
18689;SDS011;9782;52.930;15.562;2022-07-30T09:00:27;17.43;;;15.67;;
18689;SDS011;9782;52.930;15.562;2022-07-30T09:02:55;23.00;;;17.13;;
18689;SDS011;9782;52.930;15.562;2022-07-30T09:05:23;17.63;;;15.97;;
18689;SDS011;9782;52.930;15.562;2022-07-30T09:07:50;16.67;;;14.77;;
18689;SDS011;9782;52.930;15.562;2022-07-30T09:10:19;18.30;;;16.60;;
18689;SDS011;9782;52.930;15.562;2022-07-30T09:12:50;17.97;;;16.30;;
18689;SDS011;9782;52.930;15.562;2022-07-30T09:15:17;19.40;;;17.63;;
18689;SDS011;9782;52.930;15.562;2022-07-30T09:17:51;18.83;;;17.10;;
18689;SDS011;9782;52.930;15.562;2022-07-30T09:20:20;18.20;;;16.57;;
18689;SDS011;9782;52.930;15.562;2022-07-30T09:22:49;20.43;;;18.33;;
18689;SDS011;9782;52.930;15.562;2022-07-30T09:25:35;18.80;;;17.10;;
18689;SDS011;9782;52.930;15.562;2022-07-30T09:28:07;19.57;;;17.77;;
18689;SDS011;9782;52.930;15.562;2022-07-30T09:30:42;21.37;;;19.47;;
18689;SDS011;9782;52.930;15.562;2022-07-30T09:33:11;19.97;;;18.17;;
18689;SDS011;9782;52.930;15.562;2022-07-30T09:35:39;19.83;;;18.13;;
18689;SDS011;9782;52.930;15.562;2022-07-30T09:38:07;19.50;;;17.67;;
18689;SDS011;9782;52.930;15.562;2022-07-30T09:40:36;20.45;;;18.70;;
18689;SDS011;9782;52.930;15.562;2022-07-30T09:45:31;22.77;;;20.57;;
18689;SDS011;9782;52.930;15.562;2022-07-30T09:47:59;22.57;;;20.57;;
18689;SDS011;9782;52.930;15.562;2022-07-30T09:50:26;23.50;;;21.50;;
18689;SDS011;9782;52.930;15.562;2022-07-30T09:52:54;22.90;;;20.90;;
18689;SDS011;9782;52.930;15.562;2022-07-30T09:55:33;617.70;;;297.85;;
18689;SDS011;9782;52.930;15.562;2022-07-30T10:00:31;641.50;;;369.40;;
18689;SDS011;9782;52.930;15.562;2022-07-30T10:02:59;618.60;;;299.03;;
18689;SDS011;9782;52.930;15.562;2022-07-30T10:05:27;602.43;;;306.07;;
18689;SDS011;9782;52.930;15.562;2022-07-30T10:07:55;602.53;;;305.30;;
18689;SDS011;9782;52.930;15.562;2022-07-30T10:10:24;600.07;;;309.00;;
18689;SDS011;9782;52.930;15.562;2022-07-30T10:12:53;604.27;;;323.80;;
18689;SDS011;9782;52.930;15.562;2022-07-30T10:15:29;615.13;;;331.43;;
18689;SDS011;9782;52.930;15.562;2022-07-30T10:18:00;614.30;;;327.47;;
18689;SDS011;9782;52.930;15.562;2022-07-30T10:20:32;604.77;;;317.47;;
18689;SDS011;9782;52.930;15.562;2022-07-30T10:22:59;609.30;;;322.33;;
18689;SDS011;9782;52.930;15.562;2022-07-30T10:25:27;611.83;;;317.70;;
18689;SDS011;9782;52.930;15.562;2022-07-30T10:27:54;612.10;;;315.40;;
18689;SDS011;9782;52.930;15.562;2022-07-30T10:30:21;616.67;;;319.83;;
18689;SDS011;9782;52.930;15.562;2022-07-30T10:32:50;606.03;;;308.50;;
18689;SDS011;9782;52.930;15.562;2022-07-30T10:35:18;619.50;;;321.67;;
18689;SDS011;9782;52.930;15.562;2022-07-30T10:37:46;608.93;;;316.53;;
18689;SDS011;9782;52.930;15.562;2022-07-30T10:40:18;613.90;;;310.90;;
18689;SDS011;9782;52.930;15.562;2022-07-30T10:43:05;611.73;;;298.27;;
18689;SDS011;9782;52.930;15.562;2022-07-30T10:45:49;603.13;;;313.70;;
18689;SDS011;9782;52.930;15.562;2022-07-30T10:48:39;622.73;;;308.27;;
18689;SDS011;9782;52.930;15.562;2022-07-30T10:51:21;631.90;;;316.50;;
18689;SDS011;9782;52.930;15.562;2022-07-30T10:54:17;638.07;;;328.37;;
18689;SDS011;9782;52.930;15.562;2022-07-30T10:57:05;637.37;;;315.40;;
18689;SDS011;9782;52.930;15.562;2022-07-30T11:02:37;643.77;;;314.30;;
18689;SDS011;9782;52.930;15.562;2022-07-30T11:05:24;26.30;;;23.73;;
18689;SDS011;9782;52.930;15.562;2022-07-30T11:07:52;24.90;;;22.80;;
18689;SDS011;9782;52.930;15.562;2022-07-30T11:43:43;24.17;;;22.07;;
18689;SDS011;9782;52.930;15.562;2022-07-30T11:46:12;23.80;;;21.70;;
18689;SDS011;9782;52.930;15.562;2022-07-30T11:48:43;25.00;;;22.80;;
18689;SDS011;9782;52.930;15.562;2022-07-30T11:51:22;23.73;;;21.67;;
18689;SDS011;9782;52.930;15.562;2022-07-30T11:56:36;24.47;;;22.40;;
18689;SDS011;9782;52.930;15.562;2022-07-30T11:59:14;24.10;;;22.00;;
18689;SDS011;9782;52.930;15.562;2022-07-30T12:01:42;25.87;;;23.67;;
18689;SDS011;9782;52.930;15.562;2022-07-30T12:04:14;26.13;;;23.77;;
18689;SDS011;9782;52.930;15.562;2022-07-30T12:06:43;25.17;;;23.03;;
18689;SDS011;9782;52.930;15.562;2022-07-30T12:09:12;23.50;;;21.30;;
18689;SDS011;9782;52.930;15.562;2022-07-30T12:11:48;23.17;;;21.13;;
18689;SDS011;9782;52.930;15.562;2022-07-30T12:14:15;22.73;;;20.73;;
18689;SDS011;9782;52.930;15.562;2022-07-30T12:16:47;23.33;;;21.30;;
18689;SDS011;9782;52.930;15.562;2022-07-30T12:19:17;23.27;;;21.27;;
18689;SDS011;9782;52.930;15.562;2022-07-30T12:21:45;26.60;;;24.30;;
18689;SDS011;9782;52.930;15.562;2022-07-30T12:24:13;27.63;;;25.03;;
18689;SDS011;9782;52.930;15.562;2022-07-30T12:26:40;26.17;;;23.97;;
18689;SDS011;9782;52.930;15.562;2022-07-30T12:29:08;25.17;;;23.07;;
18689;SDS011;9782;52.930;15.562;2022-07-30T12:31:38;24.63;;;22.57;;
18689;SDS011;9782;52.930;15.562;2022-07-30T12:34:17;25.80;;;23.60;;
18689;SDS011;9782;52.930;15.562;2022-07-30T12:36:47;284.00;;;148.10;;
18689;SDS011;9782;52.930;15.562;2022-07-30T12:39:17;433.37;;;214.83;;
18689;SDS011;9782;52.930;15.562;2022-07-30T12:41:46;605.77;;;312.03;;
18689;SDS011;9782;52.930;15.562;2022-07-30T12:47:02;601.37;;;311.40;;
18689;SDS011;9782;52.930;15.562;2022-07-30T12:49:39;601.03;;;313.57;;
18689;SDS011;9782;52.930;15.562;2022-07-30T12:52:07;605.30;;;320.73;;
18689;SDS011;9782;52.930;15.562;2022-07-30T12:54:40;608.70;;;320.23;;
18689;SDS011;9782;52.930;15.562;2022-07-30T12:57:08;599.63;;;305.93;;
18689;SDS011;9782;52.930;15.562;2022-07-30T12:59:35;602.03;;;308.73;;
18689;SDS011;9782;52.930;15.562;2022-07-30T13:02:02;606.60;;;321.10;;
18689;SDS011;9782;52.930;15.562;2022-07-30T13:04:30;607.60;;;319.33;;
18689;SDS011;9782;52.930;15.562;2022-07-30T13:07:04;607.13;;;318.67;;
18689;SDS011;9782;52.930;15.562;2022-07-30T13:09:33;607.07;;;314.10;;
18689;SDS011;9782;52.930;15.562;2022-07-30T13:12:00;613.30;;;316.47;;
18689;SDS011;9782;52.930;15.562;2022-07-30T13:14:27;617.13;;;324.00;;
18689;SDS011;9782;52.930;15.562;2022-07-30T13:16:55;611.70;;;319.73;;
18689;SDS011;9782;52.930;15.562;2022-07-30T13:19:24;614.83;;;327.20;;
18689;SDS011;9782;52.930;15.562;2022-07-30T13:21:52;617.03;;;319.00;;
18689;SDS011;9782;52.930;15.562;2022-07-30T13:24:19;613.50;;;314.37;;
18689;SDS011;9782;52.930;15.562;2022-07-30T13:26:47;611.33;;;321.40;;
18689;SDS011;9782;52.930;15.562;2022-07-30T13:29:15;607.97;;;319.50;;
18689;SDS011;9782;52.930;15.562;2022-07-30T13:31:42;612.00;;;322.13;;
18689;SDS011;9782;52.930;15.562;2022-07-30T13:34:09;615.90;;;321.93;;
18689;SDS011;9782;52.930;15.562;2022-07-30T13:36:36;614.53;;;318.70;;
18689;SDS011;9782;52.930;15.562;2022-07-30T13:39:03;619.63;;;321.87;;
18689;SDS011;9782;52.930;15.562;2022-07-30T13:41:31;619.20;;;317.47;;
18689;SDS011;9782;52.930;15.562;2022-07-30T13:44:01;615.47;;;310.73;;
18689;SDS011;9782;52.930;15.562;2022-07-30T13:46:29;613.10;;;320.70;;
18689;SDS011;9782;52.930;15.562;2022-07-30T13:48:56;618.50;;;315.97;;
18689;SDS011;9782;52.930;15.562;2022-07-30T13:51:23;624.33;;;322.70;;
18689;SDS011;9782;52.930;15.562;2022-07-30T13:53:51;624.40;;;319.40;;
18689;SDS011;9782;52.930;15.562;2022-07-30T13:56:18;623.47;;;316.90;;
18689;SDS011;9782;52.930;15.562;2022-07-30T13:58:45;628.40;;;316.77;;
18689;SDS011;9782;52.930;15.562;2022-07-30T14:01:14;632.23;;;314.60;;
18689;SDS011;9782;52.930;15.562;2022-07-30T14:03:41;624.93;;;319.63;;
18689;SDS011;9782;52.930;15.562;2022-07-30T14:06:08;623.87;;;324.30;;
18689;SDS011;9782;52.930;15.562;2022-07-30T14:08:36;623.40;;;318.80;;
18689;SDS011;9782;52.930;15.562;2022-07-30T14:11:03;625.63;;;317.53;;
18689;SDS011;9782;52.930;15.562;2022-07-30T14:13:30;628.03;;;320.00;;
18689;SDS011;9782;52.930;15.562;2022-07-30T14:15:57;626.23;;;316.60;;
18689;SDS011;9782;52.930;15.562;2022-07-30T14:18:26;634.10;;;329.70;;
18689;SDS011;9782;52.930;15.562;2022-07-30T14:20:53;622.43;;;317.87;;
18689;SDS011;9782;52.930;15.562;2022-07-30T14:23:20;614.37;;;318.17;;
18689;SDS011;9782;52.930;15.562;2022-07-30T14:25:47;616.60;;;312.10;;
18689;SDS011;9782;52.930;15.562;2022-07-30T14:28:15;617.83;;;315.10;;
18689;SDS011;9782;52.930;15.562;2022-07-30T14:30:42;623.60;;;323.07;;
18689;SDS011;9782;52.930;15.562;2022-07-30T14:33:09;622.80;;;326.10;;
18689;SDS011;9782;52.930;15.562;2022-07-30T14:35:43;625.33;;;338.30;;
18689;SDS011;9782;52.930;15.562;2022-07-30T14:40:37;650.40;;;308.70;;
18689;SDS011;9782;52.930;15.562;2022-07-30T14:43:04;654.43;;;306.33;;
18689;SDS011;9782;52.930;15.562;2022-07-30T14:45:32;620.73;;;343.03;;
18689;SDS011;9782;52.930;15.562;2022-07-30T14:48:00;608.47;;;338.80;;
18689;SDS011;9782;52.930;15.562;2022-07-30T14:50:27;600.23;;;332.47;;
18689;SDS011;9782;52.930;15.562;2022-07-30T14:52:56;599.53;;;325.63;;
18689;SDS011;9782;52.930;15.562;2022-07-30T14:55:23;603.47;;;329.30;;
18689;SDS011;9782;52.930;15.562;2022-07-30T14:57:51;607.77;;;327.03;;
18689;SDS011;9782;52.930;15.562;2022-07-30T15:00:18;609.57;;;320.13;;
18689;SDS011;9782;52.930;15.562;2022-07-30T15:02:45;628.40;;;328.27;;
18689;SDS011;9782;52.930;15.562;2022-07-30T15:05:12;620.47;;;322.43;;
18689;SDS011;9782;52.930;15.562;2022-07-30T15:07:40;618.97;;;324.37;;
18689;SDS011;9782;52.930;15.562;2022-07-30T15:10:08;610.07;;;322.20;;
18689;SDS011;9782;52.930;15.562;2022-07-30T15:12:35;616.67;;;333.30;;
18689;SDS011;9782;52.930;15.562;2022-07-30T15:15:03;618.60;;;328.67;;
18689;SDS011;9782;52.930;15.562;2022-07-30T15:17:31;278.67;;;134.20;;
18689;SDS011;9782;52.930;15.562;2022-07-30T15:20:04;278.73;;;139.90;;
18689;SDS011;9782;52.930;15.562;2022-07-30T15:22:33;648.33;;;306.63;;
18689;SDS011;9782;52.930;15.562;2022-07-30T15:25:00;637.97;;;297.47;;
18689;SDS011;9782;52.930;15.562;2022-07-30T15:27:29;640.70;;;295.30;;
18689;SDS011;9782;52.930;15.562;2022-07-30T15:29:56;624.03;;;311.37;;
18689;SDS011;9782;52.930;15.562;2022-07-30T15:32:23;23.33;;;21.23;;